sensor_id;sensor_type;location;lat;lon;timestamp;P1;durP1;ratioP1;P2;durP2;ratioP2
25581;SDS011;13462;50.764;4.332;2024-02-21T00:00:07;32.75;;;10.57;;
25581;SDS011;13462;50.764;4.332;2024-02-21T00:02:33;22.00;;;10.07;;
25581;SDS011;13462;50.764;4.332;2024-02-21T00:04:58;26.05;;;10.45;;
25581;SDS011;13462;50.764;4.332;2024-02-21T00:07:24;36.58;;;12.25;;
25581;SDS011;13462;50.764;4.332;2024-02-21T00:09:49;28.52;;;11.93;;
25581;SDS011;13462;50.764;4.332;2024-02-21T00:12:15;34.78;;;11.40;;
25581;SDS011;13462;50.764;4.332;2024-02-21T00:14:41;30.58;;;11.02;;
25581;SDS011;13462;50.764;4.332;2024-02-21T00:17:06;35.17;;;12.00;;
25581;SDS011;13462;50.764;4.332;2024-02-21T00:19:33;35.67;;;12.77;;
25581;SDS011;13462;50.764;4.332;2024-02-21T00:21:59;29.45;;;12.35;;
25581;SDS011;13462;50.764;4.332;2024-02-21T00:24:25;31.15;;;11.77;;
25581;SDS011;13462;50.764;4.332;2024-02-21T00:26:50;28.58;;;11.77;;
25581;SDS011;13462;50.764;4.332;2024-02-21T00:29:16;30.88;;;11.45;;
25581;SDS011;13462;50.764;4.332;2024-02-21T00:31:41;28.15;;;11.75;;
25581;SDS011;13462;50.764;4.332;2024-02-21T00:34:07;28.75;;;12.35;;
25581;SDS011;13462;50.764;4.332;2024-02-21T00:36:32;24.55;;;11.82;;
25581;SDS011;13462;50.764;4.332;2024-02-21T00:38:58;38.47;;;12.80;;
25581;SDS011;13462;50.764;4.332;2024-02-21T00:41:23;30.13;;;12.23;;
25581;SDS011;13462;50.764;4.332;2024-02-21T00:43:49;30.10;;;11.18;;
25581;SDS011;13462;50.764;4.332;2024-02-21T00:46:15;31.85;;;12.32;;
25581;SDS011;13462;50.764;4.332;2024-02-21T00:48:41;26.00;;;12.13;;
25581;SDS011;13462;50.764;4.332;2024-02-21T00:51:06;32.10;;;11.30;;
25581;SDS011;13462;50.764;4.332;2024-02-21T00:53:32;34.55;;;12.43;;
25581;SDS011;13462;50.764;4.332;2024-02-21T00:55:57;33.20;;;12.85;;
25581;SDS011;13462;50.764;4.332;2024-02-21T00:58:23;23.65;;;10.98;;
25581;SDS011;13462;50.764;4.332;2024-02-21T01:00:49;29.25;;;13.45;;
25581;SDS011;13462;50.764;4.332;2024-02-21T01:03:14;25.38;;;10.95;;
25581;SDS011;13462;50.764;4.332;2024-02-21T01:05:40;31.42;;;11.68;;
25581;SDS011;13462;50.764;4.332;2024-02-21T01:08:05;35.40;;;11.88;;
25581;SDS011;13462;50.764;4.332;2024-02-21T01:10:31;28.25;;;10.75;;
25581;SDS011;13462;50.764;4.332;2024-02-21T01:12:57;25.55;;;11.82;;
25581;SDS011;13462;50.764;4.332;2024-02-21T01:15:22;36.83;;;12.70;;
25581;SDS011;13462;50.764;4.332;2024-02-21T01:17:48;33.13;;;12.27;;
25581;SDS011;13462;50.764;4.332;2024-02-21T01:20:15;28.58;;;12.10;;
25581;SDS011;13462;50.764;4.332;2024-02-21T01:22:42;32.92;;;13.38;;
25581;SDS011;13462;50.764;4.332;2024-02-21T01:25:08;35.15;;;12.43;;
25581;SDS011;13462;50.764;4.332;2024-02-21T01:27:33;29.70;;;12.20;;
25581;SDS011;13462;50.764;4.332;2024-02-21T01:29:59;27.85;;;11.70;;
25581;SDS011;13462;50.764;4.332;2024-02-21T01:32:24;39.50;;;13.05;;
25581;SDS011;13462;50.764;4.332;2024-02-21T01:34:50;29.63;;;12.98;;
25581;SDS011;13462;50.764;4.332;2024-02-21T01:37:16;33.05;;;11.95;;
25581;SDS011;13462;50.764;4.332;2024-02-21T01:39:42;33.95;;;14.98;;
25581;SDS011;13462;50.764;4.332;2024-02-21T01:42:07;27.08;;;12.90;;
25581;SDS011;13462;50.764;4.332;2024-02-21T01:44:34;39.25;;;13.35;;
25581;SDS011;13462;50.764;4.332;2024-02-21T01:46:59;31.02;;;12.80;;
25581;SDS011;13462;50.764;4.332;2024-02-21T01:49:25;28.65;;;13.25;;
25581;SDS011;13462;50.764;4.332;2024-02-21T01:51:51;33.25;;;14.25;;
25581;SDS011;13462;50.764;4.332;2024-02-21T01:54:18;33.13;;;14.90;;
25581;SDS011;13462;50.764;4.332;2024-02-21T01:56:44;34.10;;;12.63;;
25581;SDS011;13462;50.764;4.332;2024-02-21T01:59:11;32.05;;;12.85;;
25581;SDS011;13462;50.764;4.332;2024-02-21T02:01:38;32.08;;;12.32;;
25581;SDS011;13462;50.764;4.332;2024-02-21T02:04:04;33.67;;;12.65;;
25581;SDS011;13462;50.764;4.332;2024-02-21T02:06:31;32.20;;;12.65;;
25581;SDS011;13462;50.764;4.332;2024-02-21T02:08:56;34.15;;;12.77;;
25581;SDS011;13462;50.764;4.332;2024-02-21T02:11:22;30.50;;;12.00;;
25581;SDS011;13462;50.764;4.332;2024-02-21T02:13:48;31.42;;;12.82;;
25581;SDS011;13462;50.764;4.332;2024-02-21T02:16:13;30.25;;;11.48;;
25581;SDS011;13462;50.764;4.332;2024-02-21T02:18:39;28.73;;;11.45;;
25581;SDS011;13462;50.764;4.332;2024-02-21T02:21:05;30.83;;;11.40;;
25581;SDS011;13462;50.764;4.332;2024-02-21T02:23:38;26.75;;;10.65;;
25581;SDS011;13462;50.764;4.332;2024-02-21T02:26:05;30.13;;;12.75;;
25581;SDS011;13462;50.764;4.332;2024-02-21T02:28:32;27.17;;;10.73;;
25581;SDS011;13462;50.764;4.332;2024-02-21T02:30:58;27.60;;;10.88;;
25581;SDS011;13462;50.764;4.332;2024-02-21T02:33:23;27.70;;;12.63;;
25581;SDS011;13462;50.764;4.332;2024-02-21T02:35:49;27.63;;;11.07;;
25581;SDS011;13462;50.764;4.332;2024-02-21T02:38:14;29.70;;;11.40;;
25581;SDS011;13462;50.764;4.332;2024-02-21T02:40:40;23.02;;;12.13;;
25581;SDS011;13462;50.764;4.332;2024-02-21T02:43:06;21.70;;;10.57;;
25581;SDS011;13462;50.764;4.332;2024-02-21T02:45:32;33.08;;;11.75;;
25581;SDS011;13462;50.764;4.332;2024-02-21T02:47:57;25.13;;;11.73;;
25581;SDS011;13462;50.764;4.332;2024-02-21T02:50:24;21.10;;;11.05;;
25581;SDS011;13462;50.764;4.332;2024-02-21T02:52:51;26.27;;;11.07;;
25581;SDS011;13462;50.764;4.332;2024-02-21T02:55:17;24.00;;;10.07;;
25581;SDS011;13462;50.764;4.332;2024-02-21T02:57:43;26.88;;;10.82;;
25581;SDS011;13462;50.764;4.332;2024-02-21T03:00:10;26.95;;;11.32;;
25581;SDS011;13462;50.764;4.332;2024-02-21T03:02:37;21.42;;;9.65;;
25581;SDS011;13462;50.764;4.332;2024-02-21T03:05:11;25.05;;;10.38;;
25581;SDS011;13462;50.764;4.332;2024-02-21T03:07:41;26.95;;;11.63;;
25581;SDS011;13462;50.764;4.332;2024-02-21T03:10:07;28.30;;;10.48;;
25581;SDS011;13462;50.764;4.332;2024-02-21T03:12:33;22.85;;;9.75;;
25581;SDS011;13462;50.764;4.332;2024-02-21T03:14:59;29.98;;;11.13;;
25581;SDS011;13462;50.764;4.332;2024-02-21T03:17:24;26.67;;;10.63;;
25581;SDS011;13462;50.764;4.332;2024-02-21T03:19:52;27.10;;;9.95;;
25581;SDS011;13462;50.764;4.332;2024-02-21T03:22:17;28.58;;;10.63;;
25581;SDS011;13462;50.764;4.332;2024-02-21T03:24:43;21.25;;;11.02;;
25581;SDS011;13462;50.764;4.332;2024-02-21T03:27:09;26.58;;;10.13;;
25581;SDS011;13462;50.764;4.332;2024-02-21T03:29:34;24.55;;;10.73;;
25581;SDS011;13462;50.764;4.332;2024-02-21T03:32:00;30.50;;;11.45;;
25581;SDS011;13462;50.764;4.332;2024-02-21T03:34:25;29.33;;;11.63;;
25581;SDS011;13462;50.764;4.332;2024-02-21T03:36:51;26.08;;;11.02;;
25581;SDS011;13462;50.764;4.332;2024-02-21T03:39:17;27.05;;;10.70;;
25581;SDS011;13462;50.764;4.332;2024-02-21T03:41:42;31.10;;;12.35;;
25581;SDS011;13462;50.764;4.332;2024-02-21T03:44:08;28.05;;;12.10;;
25581;SDS011;13462;50.764;4.332;2024-02-21T03:46:34;27.58;;;12.25;;
25581;SDS011;13462;50.764;4.332;2024-02-21T03:49:00;29.38;;;12.02;;
25581;SDS011;13462;50.764;4.332;2024-02-21T03:51:26;29.25;;;12.18;;
25581;SDS011;13462;50.764;4.332;2024-02-21T03:53:51;27.85;;;12.85;;
25581;SDS011;13462;50.764;4.332;2024-02-21T03:56:17;32.25;;;11.80;;
25581;SDS011;13462;50.764;4.332;2024-02-21T03:58:42;30.15;;;12.60;;
25581;SDS011;13462;50.764;4.332;2024-02-21T04:01:08;33.85;;;12.63;;
25581;SDS011;13462;50.764;4.332;2024-02-21T04:03:33;25.30;;;12.23;;
25581;SDS011;13462;50.764;4.332;2024-02-21T04:05:59;28.27;;;11.93;;
25581;SDS011;13462;50.764;4.332;2024-02-21T04:08:25;31.10;;;13.45;;
25581;SDS011;13462;50.764;4.332;2024-02-21T04:10:51;34.60;;;12.90;;
25581;SDS011;13462;50.764;4.332;2024-02-21T04:13:16;29.17;;;13.05;;
25581;SDS011;13462;50.764;4.332;2024-02-21T04:15:42;33.90;;;14.30;;
25581;SDS011;13462;50.764;4.332;2024-02-21T04:18:07;35.28;;;12.93;;
25581;SDS011;13462;50.764;4.332;2024-02-21T04:20:33;27.65;;;12.38;;
25581;SDS011;13462;50.764;4.332;2024-02-21T04:22:59;34.88;;;12.98;;
25581;SDS011;13462;50.764;4.332;2024-02-21T04:25:25;29.52;;;12.73;;
25581;SDS011;13462;50.764;4.332;2024-02-21T04:27:51;31.45;;;13.23;;
25581;SDS011;13462;50.764;4.332;2024-02-21T04:30:17;27.92;;;12.00;;
25581;SDS011;13462;50.764;4.332;2024-02-21T04:32:43;31.23;;;12.27;;
25581;SDS011;13462;50.764;4.332;2024-02-21T04:35:08;28.90;;;12.65;;
25581;SDS011;13462;50.764;4.332;2024-02-21T04:37:34;26.17;;;13.05;;
25581;SDS011;13462;50.764;4.332;2024-02-21T04:39:59;25.30;;;12.88;;
25581;SDS011;13462;50.764;4.332;2024-02-21T04:42:25;23.05;;;12.50;;
25581;SDS011;13462;50.764;4.332;2024-02-21T04:44:51;24.13;;;12.18;;
25581;SDS011;13462;50.764;4.332;2024-02-21T04:47:17;28.63;;;11.25;;
25581;SDS011;13462;50.764;4.332;2024-02-21T04:49:44;31.40;;;11.50;;
25581;SDS011;13462;50.764;4.332;2024-02-21T04:52:10;19.90;;;11.00;;
25581;SDS011;13462;50.764;4.332;2024-02-21T04:54:36;24.40;;;10.25;;
25581;SDS011;13462;50.764;4.332;2024-02-21T04:57:02;24.48;;;10.55;;
25581;SDS011;13462;50.764;4.332;2024-02-21T04:59:28;23.98;;;11.38;;
25581;SDS011;13462;50.764;4.332;2024-02-21T05:01:54;27.20;;;11.38;;
25581;SDS011;13462;50.764;4.332;2024-02-21T05:04:20;21.30;;;10.05;;
25581;SDS011;13462;50.764;4.332;2024-02-21T05:06:45;23.48;;;10.93;;
25581;SDS011;13462;50.764;4.332;2024-02-21T05:09:11;24.73;;;10.23;;
25581;SDS011;13462;50.764;4.332;2024-02-21T05:11:37;24.02;;;10.98;;
25581;SDS011;13462;50.764;4.332;2024-02-21T05:14:03;25.58;;;10.02;;
25581;SDS011;13462;50.764;4.332;2024-02-21T05:16:29;22.55;;;10.48;;
25581;SDS011;13462;50.764;4.332;2024-02-21T05:18:55;26.33;;;9.48;;
25581;SDS011;13462;50.764;4.332;2024-02-21T05:21:25;24.45;;;10.60;;
25581;SDS011;13462;50.764;4.332;2024-02-21T05:23:51;22.77;;;10.10;;
25581;SDS011;13462;50.764;4.332;2024-02-21T05:26:20;23.55;;;10.07;;
25581;SDS011;13462;50.764;4.332;2024-02-21T05:28:46;28.95;;;10.05;;
25581;SDS011;13462;50.764;4.332;2024-02-21T05:31:12;28.70;;;10.23;;
25581;SDS011;13462;50.764;4.332;2024-02-21T05:33:39;23.85;;;10.45;;
25581;SDS011;13462;50.764;4.332;2024-02-21T05:36:05;17.73;;;9.82;;
25581;SDS011;13462;50.764;4.332;2024-02-21T05:38:30;16.38;;;8.70;;
25581;SDS011;13462;50.764;4.332;2024-02-21T05:40:56;23.08;;;9.00;;
25581;SDS011;13462;50.764;4.332;2024-02-21T05:43:22;19.23;;;8.75;;
25581;SDS011;13462;50.764;4.332;2024-02-21T05:45:47;20.85;;;8.23;;
25581;SDS011;13462;50.764;4.332;2024-02-21T05:48:13;17.35;;;7.82;;
25581;SDS011;13462;50.764;4.332;2024-02-21T05:50:39;16.42;;;7.90;;
25581;SDS011;13462;50.764;4.332;2024-02-21T05:53:04;17.38;;;8.63;;
25581;SDS011;13462;50.764;4.332;2024-02-21T05:55:30;19.42;;;9.25;;
25581;SDS011;13462;50.764;4.332;2024-02-21T05:57:56;14.93;;;7.85;;
25581;SDS011;13462;50.764;4.332;2024-02-21T06:00:21;13.27;;;7.40;;
25581;SDS011;13462;50.764;4.332;2024-02-21T06:02:47;16.63;;;8.60;;
25581;SDS011;13462;50.764;4.332;2024-02-21T06:05:12;17.65;;;8.07;;
25581;SDS011;13462;50.764;4.332;2024-02-21T06:07:38;15.18;;;7.50;;
25581;SDS011;13462;50.764;4.332;2024-02-21T06:10:04;13.63;;;7.40;;
25581;SDS011;13462;50.764;4.332;2024-02-21T06:12:31;17.55;;;7.43;;
25581;SDS011;13462;50.764;4.332;2024-02-21T06:14:57;14.23;;;8.63;;
25581;SDS011;13462;50.764;4.332;2024-02-21T06:17:22;16.90;;;8.13;;
25581;SDS011;13462;50.764;4.332;2024-02-21T06:19:48;16.60;;;8.05;;
25581;SDS011;13462;50.764;4.332;2024-02-21T06:22:13;13.85;;;8.38;;
25581;SDS011;13462;50.764;4.332;2024-02-21T06:24:39;25.17;;;9.02;;
25581;SDS011;13462;50.764;4.332;2024-02-21T06:27:05;19.00;;;8.63;;
25581;SDS011;13462;50.764;4.332;2024-02-21T06:29:31;20.55;;;8.70;;
25581;SDS011;13462;50.764;4.332;2024-02-21T06:31:57;15.80;;;8.60;;
25581;SDS011;13462;50.764;4.332;2024-02-21T06:34:23;17.35;;;8.02;;
25581;SDS011;13462;50.764;4.332;2024-02-21T06:36:49;16.05;;;9.55;;
25581;SDS011;13462;50.764;4.332;2024-02-21T06:39:15;16.27;;;8.43;;
25581;SDS011;13462;50.764;4.332;2024-02-21T06:41:41;18.25;;;10.35;;
25581;SDS011;13462;50.764;4.332;2024-02-21T06:44:07;17.20;;;8.60;;
25581;SDS011;13462;50.764;4.332;2024-02-21T06:46:33;17.48;;;8.95;;
25581;SDS011;13462;50.764;4.332;2024-02-21T06:48:59;16.95;;;9.13;;
25581;SDS011;13462;50.764;4.332;2024-02-21T06:51:31;19.25;;;9.73;;
25581;SDS011;13462;50.764;4.332;2024-02-21T06:53:57;17.17;;;9.65;;
25581;SDS011;13462;50.764;4.332;2024-02-21T06:56:23;17.80;;;9.63;;
25581;SDS011;13462;50.764;4.332;2024-02-21T06:58:53;20.65;;;9.75;;
25581;SDS011;13462;50.764;4.332;2024-02-21T07:01:19;18.17;;;9.80;;
25581;SDS011;13462;50.764;4.332;2024-02-21T07:03:45;18.02;;;8.98;;
25581;SDS011;13462;50.764;4.332;2024-02-21T07:06:11;17.67;;;9.73;;
25581;SDS011;13462;50.764;4.332;2024-02-21T07:08:37;19.67;;;10.23;;
25581;SDS011;13462;50.764;4.332;2024-02-21T07:11:03;19.90;;;9.50;;
25581;SDS011;13462;50.764;4.332;2024-02-21T07:13:29;17.17;;;9.85;;
25581;SDS011;13462;50.764;4.332;2024-02-21T07:15:55;15.40;;;9.88;;
25581;SDS011;13462;50.764;4.332;2024-02-21T07:18:20;20.58;;;10.40;;
25581;SDS011;13462;50.764;4.332;2024-02-21T07:20:46;19.90;;;10.95;;
25581;SDS011;13462;50.764;4.332;2024-02-21T07:23:12;19.05;;;10.07;;
25581;SDS011;13462;50.764;4.332;2024-02-21T07:25:38;20.42;;;11.82;;
25581;SDS011;13462;50.764;4.332;2024-02-21T07:28:04;19.27;;;11.05;;
25581;SDS011;13462;50.764;4.332;2024-02-21T07:30:30;20.25;;;10.85;;
25581;SDS011;13462;50.764;4.332;2024-02-21T07:32:56;25.73;;;11.48;;
25581;SDS011;13462;50.764;4.332;2024-02-21T07:35:21;19.02;;;10.77;;
25581;SDS011;13462;50.764;4.332;2024-02-21T07:37:47;22.40;;;9.73;;
25581;SDS011;13462;50.764;4.332;2024-02-21T07:40:13;18.35;;;9.65;;
25581;SDS011;13462;50.764;4.332;2024-02-21T07:42:39;20.40;;;10.35;;
25581;SDS011;13462;50.764;4.332;2024-02-21T07:45:05;23.55;;;12.00;;
25581;SDS011;13462;50.764;4.332;2024-02-21T07:47:32;16.90;;;8.82;;
25581;SDS011;13462;50.764;4.332;2024-02-21T07:49:57;18.63;;;9.40;;
25581;SDS011;13462;50.764;4.332;2024-02-21T07:52:23;19.58;;;8.63;;
25581;SDS011;13462;50.764;4.332;2024-02-21T07:54:50;16.02;;;8.50;;
25581;SDS011;13462;50.764;4.332;2024-02-21T07:57:16;17.95;;;8.45;;
25581;SDS011;13462;50.764;4.332;2024-02-21T07:59:41;18.83;;;9.07;;
25581;SDS011;13462;50.764;4.332;2024-02-21T08:02:07;17.00;;;8.75;;
25581;SDS011;13462;50.764;4.332;2024-02-21T08:04:33;16.52;;;9.13;;
25581;SDS011;13462;50.764;4.332;2024-02-21T08:06:59;16.95;;;8.48;;
25581;SDS011;13462;50.764;4.332;2024-02-21T08:09:27;20.98;;;9.10;;
25581;SDS011;13462;50.764;4.332;2024-02-21T08:11:54;13.75;;;8.50;;
25581;SDS011;13462;50.764;4.332;2024-02-21T08:14:20;13.52;;;8.55;;
25581;SDS011;13462;50.764;4.332;2024-02-21T08:16:46;17.23;;;9.00;;
25581;SDS011;13462;50.764;4.332;2024-02-21T08:19:12;17.40;;;7.88;;
25581;SDS011;13462;50.764;4.332;2024-02-21T08:21:37;19.02;;;8.07;;
25581;SDS011;13462;50.764;4.332;2024-02-21T08:24:03;13.50;;;7.97;;
25581;SDS011;13462;50.764;4.332;2024-02-21T08:26:29;15.60;;;8.93;;
25581;SDS011;13462;50.764;4.332;2024-02-21T08:28:56;13.60;;;7.50;;
25581;SDS011;13462;50.764;4.332;2024-02-21T08:31:24;15.90;;;7.30;;
25581;SDS011;13462;50.764;4.332;2024-02-21T08:33:56;14.88;;;8.32;;
25581;SDS011;13462;50.764;4.332;2024-02-21T08:36:28;14.07;;;6.95;;
25581;SDS011;13462;50.764;4.332;2024-02-21T08:38:57;25.52;;;10.68;;
25581;SDS011;13462;50.764;4.332;2024-02-21T08:41:23;17.25;;;8.52;;
25581;SDS011;13462;50.764;4.332;2024-02-21T08:43:53;13.23;;;6.97;;
25581;SDS011;13462;50.764;4.332;2024-02-21T08:46:25;13.23;;;6.30;;
25581;SDS011;13462;50.764;4.332;2024-02-21T08:48:51;12.15;;;7.45;;
25581;SDS011;13462;50.764;4.332;2024-02-21T08:51:17;12.88;;;6.70;;
25581;SDS011;13462;50.764;4.332;2024-02-21T08:53:43;13.85;;;7.00;;
25581;SDS011;13462;50.764;4.332;2024-02-21T08:56:10;17.08;;;7.10;;
25581;SDS011;13462;50.764;4.332;2024-02-21T08:58:36;17.23;;;5.72;;
25581;SDS011;13462;50.764;4.332;2024-02-21T09:01:02;13.75;;;5.90;;
25581;SDS011;13462;50.764;4.332;2024-02-21T09:03:30;11.55;;;6.13;;
25581;SDS011;13462;50.764;4.332;2024-02-21T09:05:57;14.55;;;6.10;;
25581;SDS011;13462;50.764;4.332;2024-02-21T09:08:23;10.45;;;6.50;;
25581;SDS011;13462;50.764;4.332;2024-02-21T09:10:49;17.10;;;6.38;;
25581;SDS011;13462;50.764;4.332;2024-02-21T09:13:15;13.43;;;5.97;;
25581;SDS011;13462;50.764;4.332;2024-02-21T09:15:40;12.73;;;6.68;;
25581;SDS011;13462;50.764;4.332;2024-02-21T09:18:07;8.73;;;5.72;;
25581;SDS011;13462;50.764;4.332;2024-02-21T09:20:32;11.57;;;5.90;;
25581;SDS011;13462;50.764;4.332;2024-02-21T09:22:58;11.77;;;5.97;;
25581;SDS011;13462;50.764;4.332;2024-02-21T09:25:24;12.75;;;6.88;;
25581;SDS011;13462;50.764;4.332;2024-02-21T09:27:49;16.92;;;6.38;;
25581;SDS011;13462;50.764;4.332;2024-02-21T09:30:17;14.00;;;6.20;;
25581;SDS011;13462;50.764;4.332;2024-02-21T09:32:42;14.63;;;6.10;;
25581;SDS011;13462;50.764;4.332;2024-02-21T09:35:08;11.85;;;7.53;;
25581;SDS011;13462;50.764;4.332;2024-02-21T09:37:34;11.13;;;5.80;;
25581;SDS011;13462;50.764;4.332;2024-02-21T09:40:00;12.68;;;6.10;;
25581;SDS011;13462;50.764;4.332;2024-02-21T09:42:30;9.98;;;6.15;;
25581;SDS011;13462;50.764;4.332;2024-02-21T09:45:07;12.10;;;5.57;;
25581;SDS011;13462;50.764;4.332;2024-02-21T09:47:43;6.80;;;5.15;;
25581;SDS011;13462;50.764;4.332;2024-02-21T09:50:17;12.25;;;5.85;;
25581;SDS011;13462;50.764;4.332;2024-02-21T09:52:46;10.68;;;5.43;;
25581;SDS011;13462;50.764;4.332;2024-02-21T09:55:12;10.55;;;4.13;;
25581;SDS011;13462;50.764;4.332;2024-02-21T09:57:39;10.18;;;4.88;;
25581;SDS011;13462;50.764;4.332;2024-02-21T10:00:05;8.85;;;4.15;;
25581;SDS011;13462;50.764;4.332;2024-02-21T10:02:34;10.05;;;5.07;;
25581;SDS011;13462;50.764;4.332;2024-02-21T10:05:00;13.43;;;4.72;;
25581;SDS011;13462;50.764;4.332;2024-02-21T10:07:25;11.00;;;5.13;;
25581;SDS011;13462;50.764;4.332;2024-02-21T10:10:03;9.95;;;5.32;;
25581;SDS011;13462;50.764;4.332;2024-02-21T10:12:30;10.00;;;4.88;;
25581;SDS011;13462;50.764;4.332;2024-02-21T10:15:03;13.15;;;4.95;;
25581;SDS011;13462;50.764;4.332;2024-02-21T10:17:29;14.57;;;4.65;;
25581;SDS011;13462;50.764;4.332;2024-02-21T10:19:55;12.77;;;4.55;;
25581;SDS011;13462;50.764;4.332;2024-02-21T10:22:31;12.50;;;4.65;;
25581;SDS011;13462;50.764;4.332;2024-02-21T10:25:06;12.07;;;4.45;;
25581;SDS011;13462;50.764;4.332;2024-02-21T10:27:32;11.77;;;4.90;;
25581;SDS011;13462;50.764;4.332;2024-02-21T10:29:58;7.63;;;4.72;;
25581;SDS011;13462;50.764;4.332;2024-02-21T10:32:24;14.35;;;4.88;;
25581;SDS011;13462;50.764;4.332;2024-02-21T10:35:00;12.40;;;5.22;;
25581;SDS011;13462;50.764;4.332;2024-02-21T10:37:26;10.07;;;4.70;;
25581;SDS011;13462;50.764;4.332;2024-02-21T10:39:53;14.55;;;5.38;;
25581;SDS011;13462;50.764;4.332;2024-02-21T10:42:19;17.45;;;5.25;;
25581;SDS011;13462;50.764;4.332;2024-02-21T10:44:46;11.75;;;5.25;;
25581;SDS011;13462;50.764;4.332;2024-02-21T10:47:18;11.30;;;4.78;;
25581;SDS011;13462;50.764;4.332;2024-02-21T10:49:49;13.18;;;5.25;;
25581;SDS011;13462;50.764;4.332;2024-02-21T10:52:28;9.70;;;4.90;;
25581;SDS011;13462;50.764;4.332;2024-02-21T10:55:13;8.27;;;4.50;;
25581;SDS011;13462;50.764;4.332;2024-02-21T10:57:46;11.57;;;4.75;;
25581;SDS011;13462;50.764;4.332;2024-02-21T11:00:13;16.17;;;5.55;;
25581;SDS011;13462;50.764;4.332;2024-02-21T11:02:42;7.55;;;4.53;;
25581;SDS011;13462;50.764;4.332;2024-02-21T11:05:08;10.02;;;4.65;;
25581;SDS011;13462;50.764;4.332;2024-02-21T11:07:35;9.85;;;4.43;;
25581;SDS011;13462;50.764;4.332;2024-02-21T11:10:02;16.50;;;5.18;;
25581;SDS011;13462;50.764;4.332;2024-02-21T11:12:28;8.48;;;4.53;;
25581;SDS011;13462;50.764;4.332;2024-02-21T11:15:07;11.35;;;4.75;;
25581;SDS011;13462;50.764;4.332;2024-02-21T11:17:33;15.48;;;5.13;;
25581;SDS011;13462;50.764;4.332;2024-02-21T11:19:59;9.25;;;5.10;;
25581;SDS011;13462;50.764;4.332;2024-02-21T11:22:40;11.48;;;4.80;;
25581;SDS011;13462;50.764;4.332;2024-02-21T11:25:09;9.00;;;4.53;;
25581;SDS011;13462;50.764;4.332;2024-02-21T11:27:37;6.97;;;4.07;;
25581;SDS011;13462;50.764;4.332;2024-02-21T11:30:04;8.85;;;4.68;;
25581;SDS011;13462;50.764;4.332;2024-02-21T11:32:30;10.85;;;4.75;;
25581;SDS011;13462;50.764;4.332;2024-02-21T11:37:30;13.43;;;5.88;;
25581;SDS011;13462;50.764;4.332;2024-02-21T11:40:02;10.57;;;5.28;;
25581;SDS011;13462;50.764;4.332;2024-02-21T11:42:28;11.23;;;5.07;;
25581;SDS011;13462;50.764;4.332;2024-02-21T11:44:56;16.20;;;5.82;;
25581;SDS011;13462;50.764;4.332;2024-02-21T11:47:22;8.52;;;5.28;;
25581;SDS011;13462;50.764;4.332;2024-02-21T11:49:48;14.73;;;5.95;;
25581;SDS011;13462;50.764;4.332;2024-02-21T11:52:15;9.05;;;5.60;;
25581;SDS011;13462;50.764;4.332;2024-02-21T11:54:43;13.48;;;6.45;;
25581;SDS011;13462;50.764;4.332;2024-02-21T11:57:09;11.88;;;5.38;;
25581;SDS011;13462;50.764;4.332;2024-02-21T11:59:36;11.95;;;6.35;;
25581;SDS011;13462;50.764;4.332;2024-02-21T12:02:02;8.10;;;6.22;;
25581;SDS011;13462;50.764;4.332;2024-02-21T12:04:28;9.93;;;5.78;;
25581;SDS011;13462;50.764;4.332;2024-02-21T12:06:56;14.30;;;7.40;;
25581;SDS011;13462;50.764;4.332;2024-02-21T12:09:23;15.68;;;5.53;;
25581;SDS011;13462;50.764;4.332;2024-02-21T12:12:04;13.57;;;5.80;;
25581;SDS011;13462;50.764;4.332;2024-02-21T12:17:00;11.82;;;5.93;;
25581;SDS011;13462;50.764;4.332;2024-02-21T12:19:31;15.70;;;6.50;;
25581;SDS011;13462;50.764;4.332;2024-02-21T12:21:58;19.15;;;8.02;;
25581;SDS011;13462;50.764;4.332;2024-02-21T12:24:25;12.00;;;7.38;;
25581;SDS011;13462;50.764;4.332;2024-02-21T12:26:52;17.23;;;6.78;;
25581;SDS011;13462;50.764;4.332;2024-02-21T12:29:19;14.82;;;5.95;;
25581;SDS011;13462;50.764;4.332;2024-02-21T12:31:49;20.40;;;8.73;;
25581;SDS011;13462;50.764;4.332;2024-02-21T12:34:16;14.25;;;7.68;;
25581;SDS011;13462;50.764;4.332;2024-02-21T12:36:42;16.05;;;7.05;;
25581;SDS011;13462;50.764;4.332;2024-02-21T12:39:12;14.13;;;6.07;;
25581;SDS011;13462;50.764;4.332;2024-02-21T12:41:38;8.80;;;5.38;;
25581;SDS011;13462;50.764;4.332;2024-02-21T12:44:05;9.63;;;5.57;;
25581;SDS011;13462;50.764;4.332;2024-02-21T12:46:36;10.98;;;6.50;;
25581;SDS011;13462;50.764;4.332;2024-02-21T12:49:02;11.43;;;5.97;;
25581;SDS011;13462;50.764;4.332;2024-02-21T12:51:28;12.27;;;6.47;;
25581;SDS011;13462;50.764;4.332;2024-02-21T12:53:54;11.18;;;5.70;;
25581;SDS011;13462;50.764;4.332;2024-02-21T12:56:20;11.32;;;6.38;;
25581;SDS011;13462;50.764;4.332;2024-02-21T12:58:46;12.18;;;5.90;;
25581;SDS011;13462;50.764;4.332;2024-02-21T13:01:11;11.05;;;6.35;;
25581;SDS011;13462;50.764;4.332;2024-02-21T13:03:37;10.57;;;5.70;;
25581;SDS011;13462;50.764;4.332;2024-02-21T13:06:03;11.60;;;6.30;;
25581;SDS011;13462;50.764;4.332;2024-02-21T13:08:29;11.15;;;5.75;;
25581;SDS011;13462;50.764;4.332;2024-02-21T13:10:55;12.00;;;7.15;;
25581;SDS011;13462;50.764;4.332;2024-02-21T13:13:21;14.18;;;6.78;;
25581;SDS011;13462;50.764;4.332;2024-02-21T13:15:46;11.85;;;6.28;;
25581;SDS011;13462;50.764;4.332;2024-02-21T13:18:12;10.18;;;6.75;;
25581;SDS011;13462;50.764;4.332;2024-02-21T13:20:38;8.95;;;6.03;;
25581;SDS011;13462;50.764;4.332;2024-02-21T13:23:04;13.50;;;6.97;;
25581;SDS011;13462;50.764;4.332;2024-02-21T13:25:30;15.00;;;7.78;;
25581;SDS011;13462;50.764;4.332;2024-02-21T13:27:55;13.93;;;6.45;;
25581;SDS011;13462;50.764;4.332;2024-02-21T13:30:21;14.88;;;6.20;;
25581;SDS011;13462;50.764;4.332;2024-02-21T13:32:47;12.98;;;6.38;;
25581;SDS011;13462;50.764;4.332;2024-02-21T13:35:13;16.50;;;7.93;;
25581;SDS011;13462;50.764;4.332;2024-02-21T13:37:40;11.40;;;6.10;;
25581;SDS011;13462;50.764;4.332;2024-02-21T13:40:06;11.10;;;6.03;;
25581;SDS011;13462;50.764;4.332;2024-02-21T13:42:34;15.35;;;6.35;;
25581;SDS011;13462;50.764;4.332;2024-02-21T13:45:00;11.73;;;5.78;;
25581;SDS011;13462;50.764;4.332;2024-02-21T13:47:26;12.90;;;6.10;;
25581;SDS011;13462;50.764;4.332;2024-02-21T13:49:52;12.23;;;6.68;;
25581;SDS011;13462;50.764;4.332;2024-02-21T13:52:18;13.60;;;6.80;;
25581;SDS011;13462;50.764;4.332;2024-02-21T13:54:46;12.90;;;6.05;;
25581;SDS011;13462;50.764;4.332;2024-02-21T13:57:12;13.85;;;5.38;;
25581;SDS011;13462;50.764;4.332;2024-02-21T13:59:37;13.05;;;6.18;;
25581;SDS011;13462;50.764;4.332;2024-02-21T14:02:04;12.45;;;6.80;;
25581;SDS011;13462;50.764;4.332;2024-02-21T14:04:32;14.80;;;6.35;;
25581;SDS011;13462;50.764;4.332;2024-02-21T14:06:58;11.43;;;6.13;;
25581;SDS011;13462;50.764;4.332;2024-02-21T14:09:24;10.45;;;6.03;;
25581;SDS011;13462;50.764;4.332;2024-02-21T14:11:49;13.50;;;6.38;;
25581;SDS011;13462;50.764;4.332;2024-02-21T14:14:15;14.13;;;7.22;;
25581;SDS011;13462;50.764;4.332;2024-02-21T14:16:41;17.58;;;6.90;;
25581;SDS011;13462;50.764;4.332;2024-02-21T14:19:06;14.07;;;7.30;;
25581;SDS011;13462;50.764;4.332;2024-02-21T14:21:33;16.25;;;7.05;;
25581;SDS011;13462;50.764;4.332;2024-02-21T14:24:02;17.38;;;7.20;;
25581;SDS011;13462;50.764;4.332;2024-02-21T14:26:28;13.13;;;7.28;;
25581;SDS011;13462;50.764;4.332;2024-02-21T14:28:56;16.75;;;7.93;;
25581;SDS011;13462;50.764;4.332;2024-02-21T14:31:22;11.80;;;8.82;;